AirNav   Air Wisconsin Up To $57,000 Bonus
 
 330 users online  

CT87 Bootlegger's Seaplane Base
Enfield, Connecticut, USA

GOING TO ENFIELD?


FAA INFORMATION EFFECTIVE 05 DECEMBER 2019

Location

FAA Identifier: CT87
Lat/Long: 41-59-54.3460N 072-36-21.3200W
41-59.905767N 072-36.355333W
41.9984294,-72.6059222
(estimated)
Elevation: 35 ft. / 11 m (estimated)
Variation: 15W (1990)
From city: 1 mile W of ENFIELD, CT
Time zone: UTC -5 (UTC -4 during Daylight Saving Time)
Zip code: 06082

Seaplane Base Operations

Seaplane Base use: Private use. Permission required prior to landing
Activation date: 02/1992
Control tower: no
ARTCC: BOSTON CENTER
FSS: BRIDGEPORT FLIGHT SERVICE STATION
Attendance: APR-DEC 0700-1800
Wind indicator: yes
Segmented circle: no

Seaplane Base Communications

WX ASOS at BDL (5 nm SW): PHONE 860-386-3480
WX ASOS at BAF (11 nm NW): 127.1 (413-568-2267)
WX ASOS at HFD (16 nm S): PHONE 860-527-5837
WX AWOS-AV at CT71 (19 nm SW): 129.825

Nearby radio navigation aids

VOR radial/distance  VOR name  Freq  Var
BAFr167/11.0BARNES VORTAC113.0014W
HFDr006/21.6HARTFORD VOR/DME114.9013W
CTRr152/23.3CHESTER VOR/DME115.1013W
PUTr288/34.1PUTNAM VOR/DME117.4014W
ORWr328/37.9NORWICH VOR/DME110.0014W

 
NDB name  Hdg/Dist  Freq  Var  ID
GREAT BARRINGTON121/37.239514WGBR --. -... .-.

Seaplane Base Services

Runway Information

Runway 2W/20W

Dimensions: 5000 x 500 ft. / 1524 x 152 m
Surface: water
RUNWAY 2W  RUNWAY 20W
Traffic pattern: leftleft
Obstructions: 40 ft. piers, 500 ft. from runwaynone

Seaplane Base Ownership and Management from official FAA records

Ownership: Privately-owned
Owner: STEPHEN M. COGTELLA
2 SOUTH RIVER ST.
ENFIELD, CT 06082
Phone (860) 745-0387
Manager: STEPHEN M. COGTELLA
2 SOUTH RIVER ST.
ENFIELD, CT 06082
Phone (860) 745-0387

Additional Remarks

FOR CD CTC YANKEE APCH AT 860-386-3597

Instrument Procedures

There are no published instrument procedures at CT87.

Some nearby airports with instrument procedures:

KBDL - Bradley International Airport (5 nm SW)
KBAF - Westfield-Barnes Regional Airport (11 nm NW)
KCEF - Westover Air Reserve Base/Metropolitan Airport (12 nm N)
KHFD - Hartford-Brainard Airport (16 nm S)
7B2 - Northampton Airport (20 nm N)
 
Loc | Ops | Rwys | IFR | FBO | Links
Com | Nav | Svcs | Stats | Notes

Silver City Flying Club
 
Area around CT87 (Bootlegger's Seaplane Base)
 
Road maps at: MapQuest Bing Google
 
Aerial photo
No photo
 
Sectional chart

 
Airport distance calculator
Flying to Bootlegger's Seaplane Base? Find the distance to fly.

From to CT87

Sunrise and sunset
Times for 14-Dec-2019
 Local
(UTC-5)
 Zulu
(UTC)
Morning civil twilight06:4011:40
Sunrise07:1212:12
Sunset16:1821:18
Evening civil twilight16:5021:50

Current date and time
Zulu (UTC)  14-Dec-2019 06:35:52
Local (UTC-5)  14-Dec-2019 01:35:52
 
METAR
KBDL 
5nm SW 
140551Z 36009KT 2SM RA BR BKN004 OVC010 03/02 A2997 RMK AO2 SFC VIS 3 SLP149 4/001 P0010 60031 T00280017 10028 20006 58039
KBAF 
11nm NW 
140553Z AUTO 01008KT 5SM RA BR OVC004 01/00 A2999 RMK AO2 PRESFR SLP162 P0012 60033 T00060000 10011 20000 58046
KCEF 
13nm N 
140556Z AUTO 35005KT 5SM RA BR OVC007 02/02 A2998 RMK AO2 SLP161 P0010 60024 T00230022 10024 20003 57043
KHFD 
16nm S 
140553Z AUTO 01007KT 3SM RA BR BKN004 OVC010 03/02 A2994 RMK AO2 PRESFR SLP138 P0007 60018 T00330022 10033 20011 58057
TAF
KBDL 
5nm SW 
140540Z 1406/1512 01007KT 1SM RA BR OVC003 WS020/13040KT FM141900 14004KT 1SM BR VCSH OVC003 FM142100 16006KT 1SM -SHRA BR OVC003 WS020/19035KT FM142300 18008KT 6SM BR VCSH OVC003 FM150100 20012G22KT P6SM VCSH BKN020 FM150400 22014G28KT P6SM BKN025
KBAF 
11nm NW 
140540Z 1406/1506 02007KT 1 1/2SM RA BR OVC003 WS020/14040KT FM141900 07004KT 1SM BR VCSH OVC003 FM142100 13004KT 1/2SM -SHRA FG OVC003 WS020/19035KT FM142300 17005KT 1 1/2SM -SHRA BR OVC003 WS020/19035KT FM150100 20010G22KT 6SM BR VCSH OVC015 FM150400 22012G27KT P6SM OVC020
KCEF 
13nm N 
140300Z 1403/1509 VRB06KT 8000 -RA BR OVC007 620507 540154 QNH2998INS BECMG 1405/1406 06009KT 3600 RA BR OVC007 WS015/13035KT 620709 540104 QNH2938INS TEMPO 1406/1414 1600 +RA BR OVC005 650705 BECMG 1415/1416 02009KT 9000 -RA BR OVC007 540106 QNH2926INS BECMG 1418/1419 18009KT 9999 NSW OVC010 WS020/21035KT QNH2915INS BECMG 1503/1504 24015G25KT 9999 BKN015 540155 QNH2918INS TX07/1502Z TN01/1403Z LAST NO AMDS AFT 1404 NEXT 1411
NOTAMs
Click for the latest NOTAMs
NOTAMs are issued by the DoD/FAA and will open in a separate window not controlled by AirNav.

 

 
 

Would you like to see your business listed on this page?

 If your business provides an interesting product or service to pilots, flight crews, aircraft, or users of the Bootlegger's Seaplane Base, you should consider listing it here.  To start the listing process, click on the button below
 
Add a business
 

Other Pages about Bootlegger's Seaplane Base

Update a link
 
Copyright © AirNav, LLC. All rights reserved. Privacy Policy  Contact